Time;durP1;ratioP1;P1;durP2;ratioP2;P2;SDS_P1;SDS_P2;PMS_P1;PMS_P2;Temp;Humidity;BMP_temperature;BMP_pressure;BME280_temperature;BME280_humidity;BME280_pressure;Samples;Min_cycle;Max_cycle;Signal;HPM_P1;HPM_P2
2022/12/04 00:01:04;;;;;;;15.10;9.57;;;2.60;99.90;;;;;;5090433;28;20462;-76
2022/12/04 00:03:33;;;;;;;15.27;10.00;;;2.70;99.90;;;;;;5092840;28;20489;-76
2022/12/04 00:06:04;;;;;;;20.63;12.20;;;2.80;99.90;;;;;;5101094;28;20518;-76
2022/12/04 00:08:32;;;;;;;18.60;11.80;;;2.80;99.90;;;;;;5091293;28;20857;-78
2022/12/04 00:10:59;;;;;;;15.83;9.07;;;3.00;99.90;;;;;;5091699;28;20486;-78
2022/12/04 00:13:26;;;;;;;22.40;12.47;;;3.00;99.90;;;;;;5091749;28;20514;-78
2022/12/04 00:15:55;;;;;;;13.63;8.87;;;3.00;99.90;;;;;;5094099;28;20536;-78
2022/12/04 00:18:22;;;;;;;17.87;11.30;;;3.00;99.90;;;;;;5101428;28;20465;-78
2022/12/04 00:20:50;;;;;;;16.83;8.97;;;3.00;99.90;;;;;;5097182;27;20439;-78
2022/12/04 00:23:17;;;;;;;14.90;11.00;;;3.00;99.90;;;;;;5091559;28;20933;-78
2022/12/04 00:25:47;;;;;;;18.60;11.70;;;3.10;99.90;;;;;;5101939;27;20462;-78
2022/12/04 00:28:15;;;;;;;14.23;10.13;;;3.10;99.90;;;;;;5100707;28;20868;-78
2022/12/04 00:30:43;;;;;;;19.03;11.00;;;3.10;99.90;;;;;;5097209;28;20471;-78
2022/12/04 00:33:12;;;;;;;16.20;9.23;;;3.20;99.90;;;;;;5092748;28;20592;-79
2022/12/04 00:35:39;;;;;;;18.87;10.80;;;3.20;99.90;;;;;;5094879;28;20912;-79
2022/12/04 00:38:10;;;;;;;17.47;12.07;;;3.20;99.90;;;;;;5100161;28;20453;-78
2022/12/04 00:40:38;;;;;;;13.23;9.80;;;3.20;99.90;;;;;;5098636;28;20468;-78
2022/12/04 00:43:05;;;;;;;15.63;10.63;;;3.20;99.90;;;;;;5094580;28;20496;-79
2022/12/04 00:45:32;;;;;;;15.13;8.93;;;3.20;99.90;;;;;;5097596;28;20558;-78
2022/12/04 00:47:59;;;;;;;16.10;10.67;;;3.20;99.90;;;;;;5097508;28;20499;-77
2022/12/04 00:50:27;;;;;;;12.27;9.47;;;3.20;99.90;;;;;;5103783;28;20527;-76
2022/12/04 00:52:55;;;;;;;15.27;9.17;;;3.20;99.90;;;;;;5100931;27;20589;-76
2022/12/04 00:55:22;;;;;;;15.40;10.63;;;3.20;99.90;;;;;;5098748;28;20511;-76
2022/12/04 00:57:48;;;;;;;16.23;10.93;;;3.20;99.90;;;;;;5095961;28;20507;-76
2022/12/04 01:00:17;;;;;;;21.30;9.80;;;3.10;99.90;;;;;;5104794;28;20455;-78
2022/12/04 01:02:46;;;;;;;13.23;10.00;;;3.20;99.90;;;;;;5106559;28;20450;-78
2022/12/04 01:05:14;;;;;;;16.70;8.50;;;3.20;99.90;;;;;;5099646;28;20522;-76
2022/12/04 01:07:43;;;;;;;12.67;9.13;;;3.20;99.90;;;;;;5093358;28;20860;-76
2022/12/04 01:10:13;;;;;;;12.40;9.30;;;3.30;99.90;;;;;;5102780;28;20460;-77
2022/12/04 01:12:40;;;;;;;13.20;9.03;;;3.30;99.90;;;;;;5098298;28;20559;-77
2022/12/04 01:15:08;;;;;;;14.63;8.57;;;3.20;99.90;;;;;;5097642;28;20542;-77
2022/12/04 01:17:35;;;;;;;14.53;7.57;;;3.30;99.90;;;;;;5102383;28;21063;-77
2022/12/04 01:20:03;;;;;;;15.67;8.03;;;3.30;99.90;;;;;;5103569;28;20865;-76
2022/12/04 01:22:31;;;;;;;13.03;7.73;;;3.30;99.90;;;;;;5098797;28;20516;-77
2022/12/04 01:25:00;;;;;;;14.13;9.17;;;3.30;99.90;;;;;;5096717;28;20977;-77
2022/12/04 01:27:27;;;;;;;8.90;7.03;;;3.40;99.90;;;;;;5103047;28;20490;-76
2022/12/04 01:29:55;;;;;;;16.13;8.10;;;3.30;99.90;;;;;;5094986;28;20469;-76
2022/12/04 01:32:22;;;;;;;12.07;9.27;;;3.30;99.90;;;;;;5096625;28;20450;-77
2022/12/04 01:34:49;;;;;;;11.87;8.67;;;3.30;99.90;;;;;;5092872;28;20789;-77
2022/12/04 01:37:17;;;;;;;12.97;9.33;;;3.20;99.90;;;;;;5087179;28;20462;-76
2022/12/04 01:39:44;;;;;;;11.70;8.93;;;3.20;99.90;;;;;;5094321;28;20545;-76
2022/12/04 01:42:15;;;;;;;13.90;10.03;;;3.10;99.90;;;;;;5088378;28;20508;-76
2022/12/04 01:44:45;;;;;;;13.83;8.37;;;3.10;99.90;;;;;;5104856;28;20802;-77
2022/12/04 01:47:12;;;;;;;14.17;9.00;;;3.00;99.90;;;;;;5102017;28;20922;-77
2022/12/04 01:49:46;;;;;;;16.27;8.33;;;3.10;99.90;;;;;;5091761;28;20945;-77
2022/12/04 01:52:18;;;;;;;10.33;7.47;;;3.00;99.90;;;;;;5090564;28;20559;-77
2022/12/04 01:54:49;;;;;;;13.10;9.30;;;2.90;99.90;;;;;;5102343;28;20500;-77
2022/12/04 01:57:20;;;;;;;10.57;7.63;;;3.00;99.90;;;;;;5086934;28;21008;-76
2022/12/04 01:59:52;;;;;;;10.53;6.97;;;2.90;99.90;;;;;;5101888;28;20478;-77
2022/12/04 02:02:24;;;;;;;12.50;8.33;;;2.90;99.90;;;;;;5096142;28;20622;-77
2022/12/04 02:04:51;;;;;;;11.40;7.07;;;3.00;99.90;;;;;;5102232;28;20859;-77
2022/12/04 02:07:19;;;;;;;15.83;8.90;;;3.00;99.90;;;;;;5095819;28;20583;-77
2022/12/04 02:09:52;;;;;;;11.90;8.07;;;3.00;99.90;;;;;;5097141;28;20507;-77
2022/12/04 02:12:24;;;;;;;11.93;7.63;;;3.10;99.90;;;;;;5100607;28;20461;-77
2022/12/04 02:15:01;;;;;;;9.83;7.87;;;3.10;99.90;;;;;;5096612;28;20454;-77
2022/12/04 02:17:37;;;;;;;15.20;7.80;;;3.20;99.90;;;;;;5093256;28;20949;-77
2022/12/04 02:20:22;;;;;;;11.27;8.20;;;3.10;99.90;;;;;;5098467;28;20477;-77
2022/12/04 02:23:18;;;;;;;10.80;8.67;;;3.10;99.90;;;;;;5105465;28;20446;-77
2022/12/04 02:25:57;;;;;;;13.37;7.40;;;3.00;99.90;;;;;;5098144;28;20573;-77
2022/12/04 02:28:28;;;;;;;11.97;8.20;;;3.10;99.90;;;;;;5089247;28;20477;-77
2022/12/04 02:30:59;;;;;;;9.40;6.67;;;3.00;99.90;;;;;;5093166;28;20458;-77
2022/12/04 02:33:29;;;;;;;11.27;7.47;;;2.90;99.90;;;;;;5092673;28;20583;-77
2022/12/04 02:36:02;;;;;;;8.50;6.90;;;3.20;99.90;;;;;;5096232;28;21115;-77
2022/12/04 02:38:35;;;;;;;12.00;8.43;;;3.20;99.90;;;;;;5093599;28;20462;-82
2022/12/04 02:41:08;;;;;;;14.60;8.57;;;3.20;99.90;;;;;;5088600;28;20472;-76
2022/12/04 02:43:42;;;;;;;10.13;6.70;;;3.30;99.90;;;;;;5099444;28;20483;-78
2022/12/04 02:46:15;;;;;;;11.93;7.50;;;3.40;99.90;;;;;;5092400;28;20453;-77
2022/12/04 02:48:47;;;;;;;12.13;7.47;;;3.40;99.90;;;;;;5092572;28;20557;-77
2022/12/04 02:51:18;;;;;;;12.30;8.63;;;3.60;99.90;;;;;;5097441;28;20453;-78
2022/12/04 02:53:50;;;;;;;12.07;7.67;;;3.60;99.90;;;;;;5098440;28;20513;-78
2022/12/04 02:56:23;;;;;;;14.73;8.00;;;3.50;99.90;;;;;;5097109;28;20519;-78
2022/12/04 02:58:55;;;;;;;11.10;8.17;;;3.50;99.90;;;;;;5101596;28;20952;-78
2022/12/04 03:01:27;;;;;;;8.80;7.80;;;3.50;99.90;;;;;;5095376;28;20486;-78
2022/12/04 03:04:01;;;;;;;7.13;5.73;;;3.50;99.90;;;;;;5101610;28;20477;-76
2022/12/04 03:06:34;;;;;;;7.60;6.00;;;3.40;99.90;;;;;;5097923;27;20472;-76
2022/12/04 03:09:04;;;;;;;10.53;8.70;;;3.40;99.90;;;;;;5100353;28;20446;-75
2022/12/04 03:11:36;;;;;;;8.90;7.73;;;3.40;99.90;;;;;;5091370;28;20455;-76
2022/12/04 03:14:10;;;;;;;12.13;7.50;;;3.40;99.90;;;;;;5099290;28;20518;-77
2022/12/04 03:16:41;;;;;;;8.90;7.13;;;3.30;99.90;;;;;;5097088;28;20558;-76
2022/12/04 03:19:12;;;;;;;21.33;7.03;;;3.40;99.90;;;;;;5091372;28;20478;-77
2022/12/04 03:21:42;;;;;;;9.03;7.60;;;3.50;99.90;;;;;;5090820;28;20450;-77
2022/12/04 03:24:14;;;;;;;9.10;5.93;;;3.60;99.90;;;;;;5098022;28;20505;-77
2022/12/04 03:26:45;;;;;;;11.83;6.87;;;3.60;99.90;;;;;;5100048;28;20490;-77
2022/12/04 03:29:19;;;;;;;9.30;6.57;;;3.70;99.90;;;;;;5099304;28;20510;-77
2022/12/04 03:31:51;;;;;;;10.53;7.37;;;3.80;99.90;;;;;;5093472;28;20505;-77
2022/12/04 03:34:28;;;;;;;11.77;7.07;;;3.80;99.90;;;;;;5096539;28;20634;-76
2022/12/04 03:36:59;;;;;;;8.87;6.90;;;3.80;99.90;;;;;;5096476;28;21209;-77
2022/12/04 03:39:31;;;;;;;8.23;6.70;;;3.80;99.90;;;;;;5086454;28;20519;-77
2022/12/04 03:42:02;;;;;;;8.33;6.40;;;3.80;99.90;;;;;;5093833;28;20461;-77
2022/12/04 03:44:38;;;;;;;7.57;6.00;;;3.80;99.90;;;;;;5082899;28;20508;-77
2022/12/04 03:47:10;;;;;;;11.83;7.57;;;3.80;99.90;;;;;;5086160;28;20454;-78
2022/12/04 03:49:43;;;;;;;9.70;7.53;;;3.80;99.90;;;;;;5090532;28;20504;-79
2022/12/04 03:52:14;;;;;;;14.40;8.37;;;3.80;99.90;;;;;;5095206;28;21103;-79
2022/12/04 03:54:46;;;;;;;12.50;8.33;;;3.80;99.90;;;;;;5099972;28;20915;-78
2022/12/04 03:57:17;;;;;;;9.60;7.07;;;3.80;99.90;;;;;;5103471;28;20541;-79
2022/12/04 03:59:51;;;;;;;10.53;7.43;;;3.70;99.90;;;;;;5101399;28;20468;-78
2022/12/04 04:02:22;;;;;;;10.53;7.47;;;3.70;99.90;;;;;;5097752;28;20490;-78
2022/12/04 04:04:53;;;;;;;12.40;7.40;;;3.70;99.90;;;;;;5093856;28;20987;-77
2022/12/04 04:07:24;;;;;;;9.33;8.20;;;3.70;99.90;;;;;;5097368;28;20498;-77
2022/12/04 04:09:57;;;;;;;9.93;7.43;;;3.70;99.90;;;;;;5090302;28;20956;-77
2022/12/04 04:12:27;;;;;;;9.83;6.40;;;3.70;99.90;;;;;;5091664;28;20515;-77
2022/12/04 04:26:11;;;;;;;9.47;6.20;;;3.70;99.90;;;;;;5093008;28;20467;-77
2022/12/04 04:28:40;;;;;;;14.10;7.37;;;3.70;99.90;;;;;;5093064;28;20575;-77
2022/12/04 04:31:16;;;;;;;6.43;5.83;;;3.60;99.90;;;;;;5092278;28;20453;-78
2022/12/04 04:33:50;;;;;;;10.93;7.80;;;3.60;99.90;;;;;;5100580;28;21199;-79
2022/12/04 04:36:24;;;;;;;11.47;8.40;;;3.50;99.90;;;;;;5092751;28;20476;-79
2022/12/04 04:38:59;;;;;;;9.60;7.47;;;3.50;99.90;;;;;;5099634;28;20533;-77
2022/12/04 04:41:34;;;;;;;9.27;6.37;;;3.40;99.90;;;;;;5092486;28;20511;-77
2022/12/04 04:44:11;;;;;;;10.37;7.83;;;3.50;99.90;;;;;;5108025;27;20442;-76
2022/12/04 04:46:45;;;;;;;9.40;8.33;;;3.50;99.90;;;;;;5093647;28;20515;-77
2022/12/04 04:49:15;;;;;;;9.13;7.80;;;3.50;99.90;;;;;;5088502;28;21192;-77
2022/12/04 04:51:44;;;;;;;11.70;7.90;;;3.50;99.90;;;;;;5097550;28;20442;-77
2022/12/04 04:54:14;;;;;;;14.50;8.70;;;3.40;99.90;;;;;;5094315;28;20981;-77
2022/12/04 04:56:42;;;;;;;13.03;9.43;;;3.50;99.90;;;;;;5105964;28;20482;-76
2022/12/04 04:59:09;;;;;;;11.70;8.93;;;3.50;99.90;;;;;;5096790;28;21160;-79
2022/12/04 05:01:38;;;;;;;14.43;8.80;;;3.50;99.90;;;;;;5091239;28;20944;-77
2022/12/04 05:04:08;;;;;;;13.77;9.77;;;3.40;99.90;;;;;;5097092;28;20503;-77
2022/12/04 05:06:35;;;;;;;13.60;9.23;;;3.50;99.90;;;;;;5103370;27;20511;-77
2022/12/04 05:09:02;;;;;;;11.57;10.23;;;3.40;99.90;;;;;;5093819;28;20504;-77
2022/12/04 05:11:29;;;;;;;12.60;8.63;;;3.50;99.90;;;;;;5093488;28;20490;-77
2022/12/04 05:13:56;;;;;;;9.67;8.47;;;3.50;99.90;;;;;;5095982;28;20505;-77
2022/12/04 05:16:23;;;;;;;12.27;9.80;;;3.60;99.90;;;;;;5099679;28;20520;-77
2022/12/04 05:21:36;;;;;;;9.63;7.00;;;3.90;99.90;;;;;;5099915;28;20483;-77
2022/12/04 05:24:03;;;;;;;11.83;7.00;;;4.00;99.90;;;;;;5098751;28;20474;-77
2022/12/04 05:26:30;;;;;;;11.87;7.33;;;4.00;99.90;;;;;;5097231;28;20464;-77
2022/12/04 05:28:57;;;;;;;10.57;8.50;;;4.00;99.90;;;;;;5103102;28;21030;-77
2022/12/04 05:31:25;;;;;;;11.40;9.03;;;4.00;99.90;;;;;;5102082;28;20457;-79
2022/12/04 05:33:52;;;;;;;11.90;10.10;;;4.00;99.90;;;;;;5102004;28;20512;-79
2022/12/04 05:36:19;;;;;;;8.83;7.13;;;3.90;99.90;;;;;;5099410;28;20550;-79
2022/12/04 05:38:48;;;;;;;9.40;8.10;;;3.90;99.90;;;;;;5088625;28;20482;-79
2022/12/04 05:41:14;;;;;;;11.33;8.10;;;3.90;99.90;;;;;;5087053;28;20977;-77
2022/12/04 05:43:41;;;;;;;11.23;9.20;;;3.90;99.90;;;;;;5087425;28;20555;-79
2022/12/04 05:46:10;;;;;;;11.47;7.87;;;3.90;99.90;;;;;;5095293;28;20975;-78
2022/12/04 05:48:37;;;;;;;10.93;7.40;;;3.90;99.90;;;;;;5097580;28;20496;-77
2022/12/04 05:51:06;;;;;;;11.77;8.83;;;3.90;99.90;;;;;;5101922;28;21000;-77
2022/12/04 05:53:33;;;;;;;12.33;10.53;;;3.80;99.90;;;;;;5094148;28;20463;-79
2022/12/04 05:56:03;;;;;;;11.73;8.23;;;3.80;99.90;;;;;;5106000;28;20530;-79
2022/12/04 05:58:30;;;;;;;12.13;9.70;;;3.80;99.90;;;;;;5101779;28;20913;-79
2022/12/04 06:00:57;;;;;;;14.63;9.43;;;3.80;99.90;;;;;;5105639;28;20979;-77
2022/12/04 06:03:24;;;;;;;13.43;10.13;;;3.80;99.90;;;;;;5089989;28;20458;-78
2022/12/04 06:05:51;;;;;;;10.50;9.33;;;3.90;99.90;;;;;;5092547;28;20478;-77
2022/12/04 06:08:18;;;;;;;9.73;8.63;;;3.90;99.90;;;;;;5097930;27;20555;-77
2022/12/04 06:10:44;;;;;;;9.97;8.50;;;3.80;99.90;;;;;;5096009;28;20985;-77
2022/12/04 06:13:13;;;;;;;15.23;9.40;;;3.80;99.90;;;;;;5089259;28;20490;-77
2022/12/04 06:15:40;;;;;;;12.50;9.67;;;3.80;99.90;;;;;;5090987;28;20568;-77
2022/12/04 06:18:08;;;;;;;10.83;9.23;;;3.70;99.90;;;;;;5087188;28;20465;-77
2022/12/04 06:20:35;;;;;;;12.20;8.70;;;3.70;99.90;;;;;;5091655;28;20544;-77
2022/12/04 06:23:02;;;;;;;13.40;10.03;;;3.70;99.90;;;;;;5089147;28;20466;-77
2022/12/04 06:25:29;;;;;;;12.63;9.70;;;3.60;99.90;;;;;;5091362;28;20467;-77
2022/12/04 06:27:56;;;;;;;9.60;7.97;;;3.60;99.90;;;;;;5086855;28;20457;-77
2022/12/04 06:30:24;;;;;;;10.97;8.80;;;3.60;99.90;;;;;;5085512;28;20563;-77
2022/12/04 06:32:51;;;;;;;11.20;7.57;;;3.70;99.90;;;;;;5085822;28;20931;-78
2022/12/04 06:35:18;;;;;;;15.97;9.43;;;3.70;99.90;;;;;;5101524;28;20515;-78
2022/12/04 06:37:45;;;;;;;13.47;9.33;;;3.70;99.90;;;;;;5095456;28;20451;-78
2022/12/04 06:40:13;;;;;;;14.83;12.67;;;3.70;99.90;;;;;;5085493;28;20486;-77
2022/12/04 06:42:40;;;;;;;17.33;10.63;;;3.70;99.90;;;;;;5081372;28;20953;-77
2022/12/04 06:45:08;;;;;;;11.80;9.60;;;3.70;99.90;;;;;;5085929;28;20578;-78
2022/12/04 06:47:36;;;;;;;16.00;12.40;;;3.70;99.90;;;;;;5099667;28;20490;-78
2022/12/04 06:50:04;;;;;;;21.90;12.17;;;3.70;99.90;;;;;;5091492;28;20470;-77
2022/12/04 06:52:33;;;;;;;11.83;9.03;;;3.70;99.90;;;;;;5090389;28;21032;-77
2022/12/04 06:55:00;;;;;;;14.93;9.67;;;3.80;99.90;;;;;;5086603;28;20573;-77
2022/12/04 06:57:27;;;;;;;13.97;12.47;;;3.70;99.90;;;;;;5087440;28;20516;-78
2022/12/04 06:59:54;;;;;;;12.40;10.23;;;3.80;99.90;;;;;;5092028;27;21116;-78
2022/12/04 07:02:21;;;;;;;14.90;10.40;;;3.80;99.90;;;;;;5096497;27;20553;-78
2022/12/04 07:04:49;;;;;;;15.60;10.70;;;3.80;99.90;;;;;;5088997;27;20512;-78
2022/12/04 07:07:16;;;;;;;16.33;14.50;;;3.90;99.90;;;;;;5089169;28;20486;-78
2022/12/04 07:09:44;;;;;;;18.90;14.13;;;3.90;99.90;;;;;;5086875;28;20458;-78
2022/12/04 07:12:11;;;;;;;16.70;13.10;;;4.00;99.90;;;;;;5089938;28;20484;-77
2022/12/04 07:14:38;;;;;;;18.90;14.53;;;4.00;99.90;;;;;;5090772;28;20578;-78
2022/12/04 07:17:05;;;;;;;14.87;12.17;;;4.00;99.90;;;;;;5085814;28;20589;-78
2022/12/04 07:19:32;;;;;;;16.70;13.60;;;4.10;99.90;;;;;;5089811;28;20490;-78
2022/12/04 07:22:00;;;;;;;14.60;11.33;;;4.10;99.90;;;;;;5084422;28;21264;-77
2022/12/04 07:24:27;;;;;;;16.90;10.77;;;4.10;99.90;;;;;;5085807;28;21006;-77
2022/12/04 07:26:54;;;;;;;13.97;8.90;;;4.20;99.90;;;;;;5085876;28;20484;-77
2022/12/04 07:29:21;;;;;;;17.77;11.60;;;4.20;99.90;;;;;;5086744;28;20561;-77
2022/12/04 07:31:48;;;;;;;12.30;8.97;;;4.20;99.90;;;;;;5088967;28;20541;-78
2022/12/04 07:34:15;;;;;;;15.03;10.80;;;4.20;99.90;;;;;;5095942;28;20490;-78
2022/12/04 07:36:45;;;;;;;16.37;10.37;;;4.30;99.90;;;;;;5086664;28;20458;-78
2022/12/04 07:39:13;;;;;;;16.00;11.67;;;4.30;99.90;;;;;;5089135;28;20606;-78
2022/12/04 07:41:40;;;;;;;16.33;11.87;;;4.40;99.90;;;;;;5096128;28;20493;-78
2022/12/04 07:44:07;;;;;;;14.73;12.37;;;4.40;99.90;;;;;;5086726;28;20467;-78
2022/12/04 07:46:34;;;;;;;17.20;11.50;;;4.50;99.90;;;;;;5088559;28;21578;-78
2022/12/04 07:49:01;;;;;;;16.70;10.50;;;4.50;99.90;;;;;;5100470;28;20531;-78
2022/12/04 07:51:29;;;;;;;17.30;10.87;;;4.50;99.90;;;;;;5095705;28;20470;-78
2022/12/04 07:53:57;;;;;;;24.50;16.77;;;4.60;99.90;;;;;;5091989;28;20493;-78
2022/12/04 07:56:26;;;;;;;21.40;16.50;;;4.60;99.90;;;;;;5090974;28;20981;-77
2022/12/04 07:58:52;;;;;;;21.57;14.90;;;4.70;99.90;;;;;;5091842;28;21100;-78
2022/12/04 08:01:21;;;;;;;32.10;21.33;;;4.70;99.90;;;;;;5082924;28;20505;-77
2022/12/04 08:03:49;;;;;;;22.43;15.00;;;4.70;99.90;;;;;;5091961;28;20965;-78
2022/12/04 08:06:17;;;;;;;20.13;16.40;;;4.80;99.90;;;;;;5092448;28;20531;-78
2022/12/04 08:08:45;;;;;;;25.23;16.10;;;4.80;99.90;;;;;;5092098;27;20458;-78
2022/12/04 08:11:14;;;;;;;50.03;33.50;;;4.90;99.90;;;;;;5088207;28;20491;-78
2022/12/04 08:13:43;;;;;;;23.10;15.80;;;4.90;99.90;;;;;;5085276;28;20509;-78
2022/12/04 08:16:11;;;;;;;18.67;14.13;;;5.10;99.90;;;;;;5094158;28;20513;-75
2022/12/04 08:18:38;;;;;;;17.20;12.87;;;5.20;99.90;;;;;;5092642;28;20490;-75
2022/12/04 08:21:07;;;;;;;12.60;9.80;;;5.30;99.90;;;;;;5089453;28;20927;-75
2022/12/04 08:23:34;;;;;;;18.50;16.40;;;5.30;99.90;;;;;;5082546;28;20507;-75
2022/12/04 08:26:02;;;;;;;15.90;12.37;;;5.40;99.90;;;;;;5088478;28;20483;-76
2022/12/04 08:28:29;;;;;;;17.90;13.43;;;5.50;99.90;;;;;;5081983;28;20501;-75
2022/12/04 08:31:02;;;;;;;15.00;10.80;;;5.50;99.90;;;;;;5085675;28;20972;-75
2022/12/04 08:33:29;;;;;;;18.90;14.17;;;5.50;99.90;;;;;;5089722;28;20501;-75
2022/12/04 08:35:56;;;;;;;23.27;10.30;;;5.60;99.90;;;;;;5097460;28;20528;-76
2022/12/04 08:38:23;;;;;;;11.57;10.27;;;5.70;99.90;;;;;;5093351;28;20489;-78
2022/12/04 08:40:50;;;;;;;15.07;11.10;;;5.60;99.90;;;;;;5089199;28;20505;-78
2022/12/04 08:43:17;;;;;;;11.77;9.77;;;5.70;99.90;;;;;;5098415;28;20478;-77
2022/12/04 08:45:44;;;;;;;16.57;11.50;;;5.70;99.90;;;;;;5092309;28;20928;-77
2022/12/04 08:48:13;;;;;;;13.03;11.27;;;5.80;99.90;;;;;;5088522;28;20457;-77
2022/12/04 08:50:45;;;;;;;15.47;10.50;;;5.80;99.90;;;;;;5086695;28;20482;-77
2022/12/04 08:53:12;;;;;;;11.77;9.60;;;5.70;99.90;;;;;;5090040;28;20476;-77
2022/12/04 08:55:39;;;;;;;11.13;8.77;;;5.60;99.90;;;;;;5089273;27;20517;-77
2022/12/04 08:58:05;;;;;;;10.57;8.70;;;5.50;99.90;;;;;;5092838;27;20562;-77
2022/12/04 09:00:32;;;;;;;12.87;10.47;;;5.50;99.90;;;;;;5082795;28;20565;-77
2022/12/04 09:02:59;;;;;;;12.80;11.13;;;5.50;99.90;;;;;;5092838;28;21011;-77
2022/12/04 09:05:29;;;;;;;14.90;10.10;;;5.50;99.90;;;;;;5087195;28;20508;-77
2022/12/04 09:07:56;;;;;;;12.27;10.97;;;5.50;99.90;;;;;;5087275;28;20492;-77
2022/12/04 09:10:23;;;;;;;13.23;10.73;;;5.40;99.90;;;;;;5082289;28;20496;-77
2022/12/04 09:12:50;;;;;;;20.70;12.00;;;5.40;99.90;;;;;;5085316;28;21001;-78
2022/12/04 09:15:18;;;;;;;15.00;11.67;;;5.30;99.90;;;;;;5084480;28;20506;-77
2022/12/04 09:17:45;;;;;;;13.60;10.33;;;5.20;99.90;;;;;;5088682;28;20550;-75
2022/12/04 09:20:13;;;;;;;15.20;10.63;;;5.10;99.90;;;;;;5093442;28;20487;-76
2022/12/04 09:22:42;;;;;;;9.97;8.83;;;5.10;99.90;;;;;;5093679;28;20462;-76
2022/12/04 09:25:10;;;;;;;14.23;10.60;;;5.10;99.90;;;;;;5092525;28;20552;-75
2022/12/04 09:27:40;;;;;;;12.70;10.53;;;5.00;99.90;;;;;;5092146;28;20505;-75
2022/12/04 09:30:08;;;;;;;12.53;8.90;;;5.00;99.90;;;;;;5091064;28;20489;-76
2022/12/04 09:32:36;;;;;;;13.27;9.90;;;5.00;99.90;;;;;;5093806;28;20531;-76
2022/12/04 09:35:03;;;;;;;13.70;9.47;;;5.00;99.90;;;;;;5089601;27;20509;-76
2022/12/04 09:37:30;;;;;;;14.73;10.10;;;5.00;99.90;;;;;;5088361;27;21306;-76
2022/12/04 09:39:58;;;;;;;15.00;10.40;;;5.00;99.90;;;;;;5095265;27;20465;-77
2022/12/04 09:42:43;;;;;;;15.70;11.50;;;5.00;99.90;;;;;;5089596;28;20544;-77
2022/12/04 09:45:14;;;;;;;15.70;10.20;;;5.00;99.90;;;;;;5090771;28;20493;-77
2022/12/04 09:47:44;;;;;;;12.57;9.53;;;5.00;99.90;;;;;;5084204;28;21012;-77
2022/12/04 09:50:16;;;;;;;17.13;12.03;;;5.10;99.90;;;;;;5091020;28;20485;-79
2022/12/04 09:52:54;;;;;;;13.90;10.70;;;5.10;99.90;;;;;;5076855;27;20466;-77
2022/12/04 09:55:26;;;;;;;15.70;11.10;;;5.10;99.90;;;;;;5080792;28;20477;-77
2022/12/04 09:57:58;;;;;;;16.73;10.20;;;5.10;99.90;;;;;;5080231;28;20967;-77
2022/12/04 10:00:27;;;;;;;14.33;10.03;;;5.20;99.90;;;;;;5082897;28;20466;-77
2022/12/04 10:02:59;;;;;;;12.23;7.17;;;5.20;99.90;;;;;;5082907;28;20485;-77
2022/12/04 10:05:41;;;;;;;14.43;10.93;;;5.30;99.90;;;;;;5080460;27;21138;-77
2022/12/04 10:08:16;;;;;;;12.50;10.63;;;5.30;99.90;;;;;;5090859;28;20461;-77
2022/12/04 10:10:54;;;;;;;14.73;10.40;;;5.30;99.90;;;;;;5085589;28;20497;-77
2022/12/04 10:13:47;;;;;;;12.77;9.40;;;5.30;99.90;;;;;;5087594;28;20511;-77
2022/12/04 10:16:21;;;;;;;13.63;11.00;;;5.40;99.90;;;;;;5087107;28;20517;-77
2022/12/04 10:18:54;;;;;;;13.00;11.20;;;5.50;99.90;;;;;;5084689;28;20461;-77
2022/12/04 10:21:42;;;;;;;11.33;9.83;;;5.60;99.90;;;;;;5088886;28;20549;-77
2022/12/04 10:24:22;;;;;;;13.07;10.13;;;5.60;99.90;;;;;;5087526;27;21023;-77
2022/12/04 10:26:54;;;;;;;14.00;10.63;;;5.70;99.90;;;;;;5092715;27;20485;-77
2022/12/04 10:29:27;;;;;;;16.93;11.83;;;5.70;99.90;;;;;;5086597;27;20537;-77
2022/12/04 10:31:56;;;;;;;15.47;10.60;;;5.70;99.90;;;;;;5090313;28;20462;-77
2022/12/04 10:34:26;;;;;;;14.20;10.30;;;5.70;99.90;;;;;;5084897;28;20485;-77
2022/12/04 10:36:55;;;;;;;12.20;10.63;;;5.70;99.90;;;;;;5089731;27;20514;-77
2022/12/04 10:39:25;;;;;;;17.23;11.20;;;5.70;99.90;;;;;;5083013;28;20491;-78
2022/12/04 10:41:59;;;;;;;16.13;10.23;;;5.70;99.90;;;;;;5087282;27;20498;-77
2022/12/04 10:44:26;;;;;;;17.00;11.50;;;5.70;99.90;;;;;;5085107;28;20481;-77
2022/12/04 10:46:56;;;;;;;17.90;12.20;;;5.70;99.90;;;;;;5088438;28;20466;-77
2022/12/04 10:49:27;;;;;;;14.30;10.97;;;5.70;99.90;;;;;;5088535;28;20527;-77
2022/12/04 10:51:54;;;;;;;17.07;11.63;;;5.60;99.90;;;;;;5086976;28;20521;-77
2022/12/04 10:54:25;;;;;;;17.07;13.03;;;5.60;99.90;;;;;;5084884;28;20463;-77
2022/12/04 10:56:58;;;;;;;13.90;11.30;;;5.50;99.90;;;;;;5084981;28;20623;-77
2022/12/04 10:59:25;;;;;;;18.80;13.10;;;5.50;99.90;;;;;;5089336;28;20490;-77
2022/12/04 11:02:04;;;;;;;11.33;9.30;;;5.50;99.90;;;;;;5091196;28;20493;-77
2022/12/04 11:04:34;;;;;;;15.87;10.53;;;5.60;99.90;;;;;;5088701;28;20486;-77
2022/12/04 11:07:03;;;;;;;15.27;11.90;;;5.50;99.90;;;;;;5093713;28;20968;-76
2022/12/04 11:09:31;;;;;;;15.57;11.30;;;5.50;99.90;;;;;;5087313;28;20819;-77
2022/12/04 11:12:09;;;;;;;11.63;9.50;;;5.60;99.90;;;;;;5086707;28;20480;-77
2022/12/04 11:14:36;;;;;;;16.03;10.23;;;5.60;99.90;;;;;;5084084;28;20502;-76
2022/12/04 11:17:05;;;;;;;13.13;11.73;;;5.60;99.90;;;;;;5086993;28;22709;-77
2022/12/04 11:19:35;;;;;;;13.30;10.90;;;5.60;99.90;;;;;;5081014;28;20462;-77
2022/12/04 11:22:10;;;;;;;13.03;9.90;;;5.60;99.90;;;;;;5083101;28;20465;-77
2022/12/04 11:24:39;;;;;;;14.50;11.13;;;5.60;99.90;;;;;;5083280;28;21032;-77
2022/12/04 11:27:16;;;;;;;14.03;10.43;;;5.60;99.90;;;;;;5083618;28;20519;-76
2022/12/04 11:29:45;;;;;;;10.10;8.73;;;5.60;99.90;;;;;;5082122;28;20513;-77
2022/12/04 11:32:21;;;;;;;15.10;11.47;;;5.70;99.90;;;;;;5081929;28;20581;-77
2022/12/04 11:34:50;;;;;;;13.00;10.77;;;5.60;99.90;;;;;;5080196;28;20572;-77
2022/12/04 11:37:21;;;;;;;11.53;9.10;;;5.70;99.90;;;;;;5083784;28;20523;-77
2022/12/04 11:39:49;;;;;;;13.77;10.53;;;5.70;99.90;;;;;;5078604;28;20530;-77
2022/12/04 11:42:19;;;;;;;13.27;10.27;;;5.70;99.90;;;;;;5081885;28;20548;-77
2022/12/04 11:44:52;;;;;;;15.00;11.40;;;5.70;99.90;;;;;;5086709;28;20454;-77
2022/12/04 11:47:21;;;;;;;11.90;9.70;;;5.70;99.90;;;;;;5085747;28;20534;-77
2022/12/04 11:50:02;;;;;;;13.67;10.03;;;5.70;99.90;;;;;;5081808;28;21106;-77
2022/12/04 11:52:47;;;;;;;15.00;10.47;;;5.70;99.90;;;;;;5079303;28;20530;-77
2022/12/04 11:55:20;;;;;;;15.27;10.80;;;5.60;99.90;;;;;;5078973;28;20802;-77
2022/12/04 11:57:58;;;;;;;12.07;9.60;;;5.60;99.90;;;;;;5080589;28;20503;-77
2022/12/04 12:00:26;;;;;;;13.07;9.97;;;5.70;99.90;;;;;;5081503;28;20546;-77
2022/12/04 12:03:15;;;;;;;13.27;9.80;;;5.70;99.90;;;;;;5082874;28;20546;-77
2022/12/04 12:06:13;;;;;;;12.57;9.57;;;5.70;99.90;;;;;;5078942;28;20913;-77
2022/12/04 12:08:56;;;;;;;11.77;9.63;;;5.70;99.90;;;;;;5080750;28;20544;-77
2022/12/04 12:11:28;;;;;;;13.37;10.47;;;5.70;99.90;;;;;;5090654;28;20958;-76
2022/12/04 12:14:07;;;;;;;11.40;9.67;;;5.70;99.90;;;;;;5097553;28;20953;-76
2022/12/04 12:16:47;;;;;;;14.47;10.33;;;5.70;99.90;;;;;;5086744;28;20858;-76
2022/12/04 12:19:33;;;;;;;11.97;9.03;;;5.70;99.90;;;;;;5089654;28;20480;-76
2022/12/04 12:22:08;;;;;;;13.43;9.40;;;5.60;99.90;;;;;;5083586;28;20498;-74
2022/12/04 12:24:44;;;;;;;14.00;10.13;;;5.60;99.90;;;;;;5082619;28;20559;-74
2022/12/04 12:27:28;;;;;;;13.20;9.20;;;5.60;99.90;;;;;;5084521;28;20556;-75
2022/12/04 12:30:03;;;;;;;13.70;10.70;;;5.60;99.90;;;;;;5081852;28;20622;-75
2022/12/04 12:32:42;;;;;;;14.63;10.00;;;5.60;99.90;;;;;;5079033;28;20464;-75
2022/12/04 12:35:21;;;;;;;17.33;11.23;;;5.60;99.90;;;;;;5089093;28;20500;-75
2022/12/04 12:37:52;;;;;;;15.13;10.53;;;5.50;99.90;;;;;;5082349;28;20483;-75
2022/12/04 12:40:29;;;;;;;15.83;12.30;;;5.50;99.90;;;;;;5082183;28;20495;-75
2022/12/04 12:43:01;;;;;;;14.00;10.97;;;5.50;99.90;;;;;;5089520;28;20521;-75
2022/12/04 12:45:35;;;;;;;18.37;12.23;;;5.40;99.90;;;;;;5087253;28;20458;-75
2022/12/04 12:48:16;;;;;;;12.50;10.47;;;5.40;99.90;;;;;;5082813;28;20590;-75
2022/12/04 12:50:47;;;;;;;13.20;11.10;;;5.40;99.90;;;;;;5080683;28;20463;-75
2022/12/04 12:53:20;;;;;;;12.80;10.40;;;5.40;99.90;;;;;;5087385;28;20459;-75
2022/12/04 12:55:50;;;;;;;13.90;10.13;;;5.30;99.90;;;;;;5085344;28;21072;-75
2022/12/04 12:58:21;;;;;;;13.63;10.17;;;5.30;99.90;;;;;;5092295;28;20876;-75
2022/12/04 13:00:55;;;;;;;20.53;11.17;;;5.30;99.90;;;;;;5085402;28;20536;-76
2022/12/04 13:03:29;;;;;;;17.47;11.57;;;5.20;99.90;;;;;;5086488;27;20485;-75
2022/12/04 13:06:01;;;;;;;14.00;9.90;;;5.20;99.90;;;;;;5087093;28;21006;-77
2022/12/04 13:08:34;;;;;;;14.47;11.20;;;5.20;99.90;;;;;;5088344;28;20616;-77
2022/12/04 13:11:05;;;;;;;12.80;9.57;;;5.20;99.90;;;;;;5091330;27;20538;-77
2022/12/04 13:13:35;;;;;;;15.10;11.17;;;5.20;99.90;;;;;;5087252;28;20517;-77